Time;durP1;ratioP1;P1;durP2;ratioP2;P2;SDS_P1;SDS_P2;PMS_P1;PMS_P2;Temp;Humidity;BMP_temperature;BMP_pressure;BME280_temperature;BME280_humidity;BME280_pressure;Samples;Min_cycle;Max_cycle;Signal;HPM_P1;HPM_P2
2021/01/03 10:46:48;;;;;;;95.68;22.23;;;16.80;67.40;;;;;;4726393;27;10001656;-41
2021/01/03 10:49:14;;;;;;;84.82;22.35;;;16.90;67.90;;;;;;5076039;28;20033;-43
2021/01/03 10:51:43;;;;;;;45.33;17.25;;;16.80;67.30;;;;;;5058826;28;20040;-41
2021/01/03 10:54:10;;;;;;;33.05;14.30;;;16.80;67.50;;;;;;5093831;28;20084;-41
2021/01/03 10:56:36;;;;;;;26.90;11.75;;;16.80;67.20;;;;;;5065756;28;20106;-41
2021/01/03 10:59:06;;;;;;;20.98;11.85;;;16.80;67.40;;;;;;5067147;28;20052;-39
2021/01/03 11:01:32;;;;;;;20.02;11.68;;;16.80;67.60;;;;;;5066751;28;20024;-40
2021/01/03 11:03:57;;;;;;;16.20;10.60;;;16.80;67.70;;;;;;5061082;28;20033;-40
2021/01/03 11:06:23;;;;;;;23.48;11.05;;;16.80;67.60;;;;;;5068227;28;20040;-41
2021/01/03 11:08:48;;;;;;;20.13;10.90;;;16.80;67.50;;;;;;5065472;28;20031;-39
2021/01/03 11:11:20;;;;;;;14.52;9.75;;;16.80;67.40;;;;;;5065534;28;20103;-39
2021/01/03 11:13:46;;;;;;;16.05;9.70;;;16.80;67.10;;;;;;5060733;28;20036;-40
2021/01/03 11:16:11;;;;;;;17.42;10.70;;;16.80;67.00;;;;;;5060750;28;20029;-41
2021/01/03 11:18:37;;;;;;;16.08;10.38;;;16.90;66.90;;;;;;5066763;28;20036;-38
2021/01/03 11:21:03;;;;;;;18.48;10.50;;;16.90;66.70;;;;;;5066350;28;20519;-38
2021/01/03 11:23:28;;;;;;;17.05;10.18;;;16.90;67.00;;;;;;5064828;28;20047;-39
2021/01/03 11:25:55;;;;;;;16.67;10.52;;;16.90;66.80;;;;;;5067276;28;20102;-40
2021/01/03 11:28:21;;;;;;;14.32;8.95;;;17.00;66.70;;;;;;5066766;28;20028;-39
2021/01/03 11:30:47;;;;;;;14.98;9.27;;;16.90;66.70;;;;;;5068341;28;20025;-40
2021/01/03 11:33:12;;;;;;;13.55;9.27;;;16.90;66.40;;;;;;5066372;28;20021;-40
2021/01/03 11:35:38;;;;;;;11.80;8.40;;;16.90;66.50;;;;;;5068338;28;20111;-39
2021/01/03 11:38:03;;;;;;;12.57;9.15;;;16.90;66.70;;;;;;5070040;28;20028;-41
2021/01/03 11:40:29;;;;;;;12.57;8.15;;;16.90;66.80;;;;;;5065995;28;20021;-39
2021/01/03 11:42:56;;;;;;;14.73;8.43;;;16.90;66.70;;;;;;5081712;28;20476;-41
2021/01/03 11:45:22;;;;;;;12.95;7.50;;;16.90;66.90;;;;;;5077056;28;20037;-40
2021/01/03 11:47:48;;;;;;;12.77;8.07;;;16.90;66.80;;;;;;5066679;28;20035;-44
2021/01/03 11:50:16;;;;;;;10.90;7.78;;;16.90;67.00;;;;;;5072181;28;20029;-40
2021/01/03 11:52:41;;;;;;;18.25;8.60;;;17.00;67.00;;;;;;5064218;28;20191;-40
2021/01/03 11:55:08;;;;;;;10.32;7.60;;;17.00;66.60;;;;;;5076440;28;20128;-39
2021/01/03 11:57:34;;;;;;;13.30;7.88;;;17.00;66.60;;;;;;5056752;28;20025;-39
2021/01/03 11:59:59;;;;;;;9.18;7.03;;;17.00;67.10;;;;;;5051595;28;20131;-41
2021/01/03 12:02:25;;;;;;;9.95;7.00;;;17.00;66.70;;;;;;5050586;28;20079;-40
2021/01/03 12:04:50;;;;;;;12.77;7.85;;;17.00;66.80;;;;;;5037596;28;20045;-40
2021/01/03 12:07:17;;;;;;;13.55;7.25;;;17.00;67.30;;;;;;5048642;28;20033;-40
2021/01/03 12:09:43;;;;;;;15.55;6.97;;;17.00;67.30;;;;;;5051330;28;20100;-40
2021/01/03 12:12:11;;;;;;;9.82;6.38;;;17.10;67.00;;;;;;5051617;28;20104;-40
2021/01/03 12:14:37;;;;;;;11.43;6.35;;;17.00;67.10;;;;;;5051220;28;20545;-39
2021/01/03 12:17:08;;;;;;;10.20;6.45;;;17.10;67.20;;;;;;5051510;28;20033;-40
2021/01/03 12:19:34;;;;;;;9.57;6.55;;;17.10;66.90;;;;;;5048402;28;20392;-38
2021/01/03 12:22:00;;;;;;;12.43;6.75;;;17.20;66.90;;;;;;5031838;28;20109;-40
2021/01/03 12:24:26;;;;;;;10.40;6.70;;;17.20;67.00;;;;;;5052615;28;20025;-41
2021/01/03 12:26:51;;;;;;;8.20;6.00;;;17.20;67.00;;;;;;5050524;28;20044;-40
2021/01/03 12:29:17;;;;;;;6.68;5.47;;;17.20;67.00;;;;;;5050554;28;20033;-40
2021/01/03 12:31:44;;;;;;;10.75;6.32;;;17.20;66.80;;;;;;5050295;28;20504;-39
2021/01/03 12:34:11;;;;;;;11.25;5.28;;;17.20;66.50;;;;;;5046728;28;20024;-40
2021/01/03 12:36:37;;;;;;;6.00;5.45;;;17.20;66.80;;;;;;5049269;28;20119;-39
2021/01/03 12:39:03;;;;;;;5.50;4.97;;;17.30;66.30;;;;;;5051938;28;20923;-40
2021/01/03 12:41:29;;;;;;;9.55;5.47;;;17.30;66.40;;;;;;5050190;28;20059;-40
2021/01/03 12:43:55;;;;;;;8.35;6.05;;;17.30;66.60;;;;;;5053639;28;20061;-39
2021/01/03 12:46:28;;;;;;;8.55;5.22;;;17.30;66.60;;;;;;5047824;28;20056;-38
2021/01/03 12:48:53;;;;;;;6.13;5.50;;;17.30;66.40;;;;;;5056454;28;20025;-42
2021/01/03 12:51:19;;;;;;;6.18;5.40;;;17.20;66.80;;;;;;5053718;28;20033;-43
2021/01/03 12:53:45;;;;;;;25.20;6.53;;;17.20;66.60;;;;;;5050298;28;20071;-41
2021/01/03 12:56:10;;;;;;;5.53;4.97;;;17.20;66.60;;;;;;5050285;28;20060;-39
2021/01/03 12:58:36;;;;;;;6.60;4.88;;;17.30;66.60;;;;;;5050733;28;20090;-40
2021/01/03 13:01:01;;;;;;;5.78;5.28;;;17.30;66.40;;;;;;5045485;28;20032;-40
2021/01/03 13:03:27;;;;;;;6.00;4.70;;;17.20;66.60;;;;;;5049456;28;20026;-41
2021/01/03 13:05:52;;;;;;;5.50;4.90;;;17.20;66.40;;;;;;5051728;28;20047;-39
2021/01/03 13:08:18;;;;;;;5.20;4.72;;;17.20;66.50;;;;;;5073741;28;20116;-40
2021/01/03 13:10:43;;;;;;;9.50;4.32;;;17.20;66.40;;;;;;5053538;28;20024;-40
2021/01/03 13:13:10;;;;;;;4.72;4.03;;;17.30;66.40;;;;;;5052065;28;20427;-42
2021/01/03 13:15:35;;;;;;;5.30;4.72;;;17.20;66.50;;;;;;5055665;28;20033;-41
2021/01/03 13:18:01;;;;;;;4.80;4.40;;;17.20;66.60;;;;;;5054457;28;20572;-52
2021/01/03 13:20:26;;;;;;;5.45;4.47;;;17.30;66.10;;;;;;5038219;28;20044;-38
2021/01/03 13:22:52;;;;;;;11.00;5.40;;;17.30;66.30;;;;;;4690503;28;10000559;-38
2021/01/03 13:25:18;;;;;;;5.93;4.22;;;17.40;65.90;;;;;;5044062;28;20476;-37
2021/01/03 13:27:43;;;;;;;7.18;4.10;;;17.30;66.30;;;;;;5046005;28;20037;-36
2021/01/03 13:30:10;;;;;;;5.97;4.03;;;17.30;66.20;;;;;;5046986;28;20041;-38
2021/01/03 13:32:35;;;;;;;8.05;4.38;;;17.30;66.40;;;;;;5045081;28;20039;-42
2021/01/03 13:35:01;;;;;;;5.22;4.53;;;17.40;66.30;;;;;;5044125;28;20495;-46
2021/01/03 13:37:26;;;;;;;5.10;4.15;;;17.40;65.90;;;;;;5044551;28;20063;-47
2021/01/03 13:39:52;;;;;;;5.30;3.65;;;17.40;66.10;;;;;;5044262;28;20060;-37
2021/01/03 13:42:17;;;;;;;5.40;3.78;;;17.50;65.90;;;;;;5047906;28;20393;-38
2021/01/03 13:44:43;;;;;;;4.97;4.57;;;17.50;65.50;;;;;;5045186;28;20102;-40
2021/01/03 13:47:09;;;;;;;3.97;3.67;;;17.60;65.30;;;;;;5044397;28;20032;-38
2021/01/03 13:49:34;;;;;;;4.45;3.38;;;17.70;64.80;;;;;;5045255;28;20029;-52
2021/01/03 13:52:00;;;;;;;5.90;3.70;;;17.90;64.30;;;;;;5043564;28;20030;-59
2021/01/03 13:54:25;;;;;;;6.10;3.60;;;18.00;63.40;;;;;;5044538;28;20086;-49
2021/01/03 13:56:51;;;;;;;5.82;3.40;;;17.90;63.80;;;;;;5042510;28;21494;-59
2021/01/03 13:59:17;;;;;;;3.90;3.47;;;17.70;64.10;;;;;;5038814;28;20029;-45
2021/01/03 14:01:42;;;;;;;4.72;3.42;;;17.60;64.90;;;;;;5036742;28;20029;-56
2021/01/03 14:04:08;;;;;;;7.97;3.05;;;17.50;64.80;;;;;;5040585;28;20025;-63
2021/01/03 14:06:34;;;;;;;4.30;2.78;;;17.40;66.70;;;;;;5045162;28;20823;-53
2021/01/03 14:09:00;;;;;;;3.55;3.25;;;17.30;67.30;;;;;;5043374;28;20424;-55
2021/01/03 14:11:27;;;;;;;5.00;3.08;;;17.30;67.60;;;;;;5046478;28;20033;-55
2021/01/03 14:13:52;;;;;;;3.65;3.30;;;17.30;67.30;;;;;;5045361;28;20066;-54
2021/01/03 14:16:19;;;;;;;3.55;3.22;;;17.30;68.10;;;;;;5043178;28;20032;-57
2021/01/03 14:18:45;;;;;;;5.20;3.03;;;17.30;67.40;;;;;;5044698;28;20033;-57
2021/01/03 14:21:11;;;;;;;3.72;3.38;;;17.30;67.30;;;;;;5044726;28;20497;-56
2021/01/03 14:23:36;;;;;;;3.55;3.25;;;17.30;67.00;;;;;;5042963;28;20584;-55
2021/01/03 14:26:02;;;;;;;3.92;3.22;;;17.40;67.20;;;;;;5044794;28;20032;-55
2021/01/03 14:28:31;;;;;;;3.22;2.90;;;17.40;66.80;;;;;;5075506;28;20024;-60
2021/01/03 14:30:57;;;;;;;4.25;3.20;;;17.50;66.20;;;;;;5051496;28;20032;-62
2021/01/03 14:33:23;;;;;;;3.13;2.90;;;17.50;66.10;;;;;;5051197;28;21289;-60
2021/01/03 14:35:53;;;;;;;4.00;3.20;;;17.50;65.90;;;;;;5042947;28;20400;-59
2021/01/03 14:38:18;;;;;;;4.32;3.22;;;17.40;66.30;;;;;;5082819;28;20468;-59
2021/01/03 14:40:48;;;;;;;4.03;2.90;;;17.40;66.10;;;;;;5047011;28;20039;-57
2021/01/03 14:43:14;;;;;;;3.22;2.90;;;17.30;66.70;;;;;;5052104;28;20027;-52
2021/01/03 14:45:49;;;;;;;4.10;3.80;;;17.40;66.10;;;;;;5049209;28;20087;-60
2021/01/03 14:48:20;;;;;;;3.10;2.80;;;17.50;65.90;;;;;;5064134;28;20605;-61
2021/01/03 14:51:02;;;;;;;6.15;3.70;;;17.50;65.80;;;;;;5045820;28;20067;-49
2021/01/03 14:53:49;;;;;;;3.42;3.22;;;17.50;65.60;;;;;;5045160;28;20037;-59
2021/01/03 14:56:21;;;;;;;3.47;3.13;;;17.60;65.30;;;;;;5048573;28;20028;-56
2021/01/03 14:58:56;;;;;;;3.67;3.38;;;17.60;65.40;;;;;;5046824;28;20044;-55
2021/01/03 15:01:48;;;;;;;4.05;3.00;;;17.60;65.40;;;;;;5045888;28;20036;-55
2021/01/03 15:04:35;;;;;;;2.97;2.78;;;17.50;65.40;;;;;;4990868;28;20050;-50
2021/01/03 15:07:13;;;;;;;6.55;2.50;;;17.50;65.60;;;;;;4974119;28;20034;-59
2021/01/03 15:09:43;;;;;;;3.70;2.67;;;17.50;65.70;;;;;;4985799;28;20513;-52
2021/01/03 15:12:13;;;;;;;3.78;2.47;;;17.40;65.50;;;;;;4991070;28;20066;-58
2021/01/03 15:14:46;;;;;;;5.53;3.15;;;17.50;65.70;;;;;;4971901;28;20030;-57
2021/01/03 15:17:34;;;;;;;3.45;3.20;;;17.50;65.40;;;;;;4989172;28;20113;-59
2021/01/03 15:20:07;;;;;;;4.82;2.78;;;17.50;65.50;;;;;;4990061;28;20164;-51
2021/01/03 15:22:43;;;;;;;4.63;2.85;;;17.50;65.50;;;;;;4781556;28;10000744;-57
2021/01/03 15:25:17;;;;;;;6.18;3.03;;;17.60;65.30;;;;;;4983600;28;20258;-57
2021/01/03 15:27:42;;;;;;;2.80;2.60;;;17.60;65.00;;;;;;4967422;28;20054;-51
2021/01/03 15:30:09;;;;;;;5.55;2.70;;;17.60;66.00;;;;;;4982507;28;20038;-59
2021/01/03 15:32:43;;;;;;;4.90;2.50;;;17.60;65.70;;;;;;4969589;28;20463;-47
2021/01/03 15:35:11;;;;;;;3.05;2.72;;;17.70;64.90;;;;;;4973490;28;20108;-53
2021/01/03 15:37:39;;;;;;;3.75;2.33;;;17.70;65.60;;;;;;4973413;28;20042;-43
2021/01/03 15:40:16;;;;;;;2.80;2.60;;;17.60;64.80;;;;;;4985602;28;20042;-60
2021/01/03 15:42:45;;;;;;;2.80;2.60;;;17.70;65.00;;;;;;5043249;28;20035;-53
2021/01/03 15:45:19;;;;;;;2.83;2.63;;;17.60;65.00;;;;;;5044281;28;20048;-55
2021/01/03 15:47:45;;;;;;;4.15;2.80;;;17.60;65.00;;;;;;5045101;28;20498;-49
2021/01/03 15:50:11;;;;;;;3.97;2.55;;;17.60;65.10;;;;;;5045334;28;20112;-45
2021/01/03 15:52:39;;;;;;;3.30;3.10;;;17.60;65.20;;;;;;5042878;28;20032;-57
2021/01/03 15:55:06;;;;;;;2.90;2.50;;;17.50;65.20;;;;;;5046188;28;20024;-57
2021/01/03 15:57:33;;;;;;;3.20;2.55;;;17.60;65.20;;;;;;5048659;28;20068;-49
2021/01/03 15:59:59;;;;;;;2.70;2.40;;;17.60;65.30;;;;;;5045421;28;20036;-56
2021/01/03 16:02:24;;;;;;;4.53;2.35;;;17.70;64.90;;;;;;5044352;28;20029;-55
2021/01/03 16:04:50;;;;;;;7.78;2.80;;;17.60;64.90;;;;;;5044617;28;20037;-55
2021/01/03 16:07:15;;;;;;;3.22;2.95;;;17.60;65.10;;;;;;5047001;28;20556;-47
2021/01/03 16:09:41;;;;;;;2.67;2.47;;;17.60;65.30;;;;;;5045402;28;20094;-55
2021/01/03 16:12:07;;;;;;;3.20;2.20;;;17.60;65.20;;;;;;5047073;28;20465;-55
2021/01/03 16:14:33;;;;;;;3.78;2.15;;;17.50;65.40;;;;;;5045887;28;20369;-52
2021/01/03 16:16:58;;;;;;;3.63;2.65;;;17.60;65.40;;;;;;5045961;28;20747;-55
2021/01/03 16:19:41;;;;;;;3.15;2.65;;;17.60;64.90;;;;;;5047034;28;20032;-49
2021/01/03 16:22:31;;;;;;;2.63;2.45;;;17.70;65.00;;;;;;5044564;28;20033;-54
2021/01/03 16:25:11;;;;;;;3.47;2.88;;;17.60;65.00;;;;;;5045941;28;20151;-49
2021/01/03 16:27:43;;;;;;;5.13;2.70;;;17.50;65.30;;;;;;5042306;28;20051;-53
2021/01/03 16:30:20;;;;;;;2.95;2.45;;;17.60;65.10;;;;;;5045746;28;20044;-51
2021/01/03 16:33:08;;;;;;;4.93;2.83;;;17.60;65.20;;;;;;5043824;28;20044;-45
2021/01/03 16:35:52;;;;;;;2.58;2.38;;;17.50;65.00;;;;;;5048697;28;20028;-51
2021/01/03 16:38:44;;;;;;;6.03;2.20;;;17.60;64.80;;;;;;5048271;28;20074;-48
2021/01/03 16:41:13;;;;;;;2.83;2.53;;;17.60;65.10;;;;;;5045195;28;20032;-49
2021/01/03 16:43:43;;;;;;;7.32;2.50;;;17.60;64.80;;;;;;5047415;28;20033;-49
2021/01/03 16:46:31;;;;;;;5.80;2.55;;;17.60;64.70;;;;;;5046763;28;20049;-49
2021/01/03 16:49:33;;;;;;;3.05;2.28;;;17.60;64.70;;;;;;5063368;28;20049;-49
2021/01/03 16:52:08;;;;;;;2.58;2.30;;;17.60;64.80;;;;;;4945108;29;20043;-50
2021/01/03 16:54:51;;;;;;;3.08;2.47;;;17.60;64.70;;;;;;4950043;29;20126;-47
2021/01/03 16:57:44;;;;;;;2.75;2.50;;;17.60;64.90;;;;;;4949261;29;20107;-58
2021/01/03 17:00:12;;;;;;;3.67;2.30;;;17.80;64.60;;;;;;4950373;29;20088;-51
2021/01/03 17:02:45;;;;;;;2.63;2.30;;;17.80;64.10;;;;;;4945636;28;20043;-47
2021/01/03 17:05:15;;;;;;;6.75;2.88;;;17.70;64.30;;;;;;4947999;28;20087;-46
2021/01/03 17:07:46;;;;;;;6.80;4.38;;;17.80;63.60;;;;;;4949547;28;20047;-43
2021/01/03 17:10:18;;;;;;;4.80;3.85;;;17.70;64.20;;;;;;4947477;29;20590;-50
2021/01/03 17:13:05;;;;;;;9.45;3.88;;;17.70;63.90;;;;;;4931621;29;20063;-50
2021/01/03 17:15:45;;;;;;;6.47;2.97;;;17.70;64.20;;;;;;4948545;28;20541;-50
2021/01/03 17:18:22;;;;;;;6.68;3.40;;;17.60;64.50;;;;;;4948694;28;20110;-47
2021/01/03 17:21:02;;;;;;;8.45;3.60;;;17.60;64.40;;;;;;4946407;28;20039;-48
2021/01/03 17:23:49;;;;;;;5.15;3.92;;;17.60;64.60;;;;;;4948977;28;20031;-47
2021/01/03 17:26:53;;;;;;;7.45;3.45;;;17.60;64.60;;;;;;4931153;29;20458;-47
2021/01/03 17:29:42;;;;;;;4.43;4.13;;;17.60;65.00;;;;;;5047519;28;20029;-47
2021/01/03 17:32:50;;;;;;;6.75;3.80;;;17.60;65.00;;;;;;5045735;28;20032;-48
2021/01/03 17:35:41;;;;;;;4.88;3.60;;;17.70;64.20;;;;;;4969360;28;20046;-49
2021/01/03 17:38:22;;;;;;;13.63;3.85;;;17.90;64.20;;;;;;4957548;28;20411;-47
2021/01/03 17:41:32;;;;;;;4.28;3.67;;;17.80;64.40;;;;;;4970656;28;20026;-44
2021/01/03 17:44:05;;;;;;;3.55;3.20;;;17.80;64.30;;;;;;4969684;28;20114;-47
2021/01/03 17:46:35;;;;;;;3.60;3.30;;;17.70;64.60;;;;;;4971964;28;20046;-47
2021/01/03 17:49:06;;;;;;;4.00;3.75;;;17.60;64.50;;;;;;4965565;28;20109;-44
2021/01/03 17:51:31;;;;;;;7.60;3.13;;;17.60;64.20;;;;;;4975263;28;20038;-50
2021/01/03 17:53:58;;;;;;;8.38;3.42;;;17.70;64.70;;;;;;4965974;28;20033;-43
2021/01/03 17:56:23;;;;;;;5.65;3.30;;;17.70;64.60;;;;;;4974530;28;20038;-50
2021/01/03 17:58:49;;;;;;;7.85;3.60;;;17.80;63.60;;;;;;4967637;28;20046;-41
2021/01/03 18:01:15;;;;;;;3.45;3.13;;;17.80;64.50;;;;;;4966357;28;20554;-49
2021/01/03 18:03:41;;;;;;;3.88;3.53;;;17.80;64.20;;;;;;4973667;28;20113;-46
2021/01/03 18:06:07;;;;;;;5.57;3.10;;;17.80;64.10;;;;;;4970085;28;20133;-45
2021/01/03 18:08:33;;;;;;;6.82;2.78;;;17.80;64.30;;;;;;4966757;28;20031;-47
2021/01/03 18:10:58;;;;;;;3.03;2.60;;;17.80;63.90;;;;;;5016597;28;20052;-50
2021/01/03 18:13:25;;;;;;;5.47;3.40;;;17.90;64.10;;;;;;5045646;28;20512;-48
2021/01/03 18:15:53;;;;;;;5.10;2.85;;;17.90;63.80;;;;;;5043960;28;20740;-46
2021/01/03 18:18:20;;;;;;;6.78;3.15;;;17.90;64.00;;;;;;5047330;28;20530;-51
2021/01/03 18:20:45;;;;;;;4.43;2.72;;;17.90;64.10;;;;;;5045124;28;20115;-49
2021/01/03 18:23:11;;;;;;;11.02;3.80;;;17.90;64.90;;;;;;5045228;28;20170;-48
2021/01/03 18:25:37;;;;;;;4.45;2.45;;;18.00;65.10;;;;;;5045179;28;20047;-51
2021/01/03 18:28:02;;;;;;;12.45;3.30;;;18.10;63.50;;;;;;5046570;28;20064;-41
2021/01/03 18:30:29;;;;;;;3.55;2.65;;;17.90;64.30;;;;;;5048006;28;20029;-50
2021/01/03 18:32:55;;;;;;;3.00;2.80;;;17.90;64.50;;;;;;5045706;28;20031;-39
2021/01/03 18:35:35;;;;;;;5.28;2.50;;;18.30;64.00;;;;;;5046112;28;20024;-39
2021/01/03 18:38:01;;;;;;;3.85;2.65;;;18.20;64.10;;;;;;5047365;28;20016;-41
2021/01/03 18:40:28;;;;;;;6.22;3.13;;;18.10;64.60;;;;;;5045644;28;20029;-42
2021/01/03 18:42:54;;;;;;;3.63;2.58;;;18.00;64.70;;;;;;5045252;28;20034;-42
2021/01/03 18:45:24;;;;;;;4.32;3.00;;;18.00;64.60;;;;;;5048967;28;20049;-41
2021/01/03 18:47:50;;;;;;;3.63;3.03;;;18.00;64.80;;;;;;5045887;28;20032;-42
2021/01/03 18:50:16;;;;;;;3.30;3.00;;;18.00;64.80;;;;;;5046979;28;20032;-41
2021/01/03 18:52:41;;;;;;;6.20;2.60;;;18.00;65.50;;;;;;5042113;28;20076;-43
2021/01/03 18:55:07;;;;;;;9.60;2.70;;;18.10;64.70;;;;;;5045190;28;20496;-41
2021/01/03 18:57:33;;;;;;;4.00;2.80;;;18.10;64.40;;;;;;5047533;28;20036;-44
2021/01/03 18:59:59;;;;;;;5.47;2.70;;;18.20;64.30;;;;;;5056764;28;20028;-41
2021/01/03 19:02:24;;;;;;;6.65;2.72;;;18.20;64.40;;;;;;5056175;28;20037;-43
2021/01/03 19:04:50;;;;;;;4.75;2.75;;;18.30;64.10;;;;;;5043133;28;20028;-44
2021/01/03 19:07:16;;;;;;;3.33;2.40;;;18.30;63.80;;;;;;5043019;28;20039;-46
2021/01/03 19:09:41;;;;;;;3.10;2.38;;;18.40;64.10;;;;;;5046217;28;20021;-40
2021/01/03 19:12:09;;;;;;;3.05;2.72;;;18.40;63.70;;;;;;5046529;28;20154;-40
2021/01/03 19:14:35;;;;;;;5.75;2.67;;;18.50;64.00;;;;;;5047316;28;20074;-43
2021/01/03 19:17:15;;;;;;;6.00;2.42;;;18.40;64.10;;;;;;5046071;28;20033;-56
2021/01/03 19:19:41;;;;;;;19.80;3.10;;;18.70;63.40;;;;;;5044821;28;20032;-37
2021/01/03 19:22:07;;;;;;;5.53;2.78;;;18.50;63.80;;;;;;5046572;28;20400;-41
2021/01/03 19:24:33;;;;;;;6.88;2.25;;;18.40;64.10;;;;;;5048941;28;20043;-38
2021/01/03 19:26:59;;;;;;;4.28;2.67;;;18.40;64.00;;;;;;5046459;28;20033;-38
2021/01/03 19:29:24;;;;;;;5.30;3.10;;;18.30;64.40;;;;;;5047180;28;20135;-41
2021/01/03 19:31:50;;;;;;;10.00;2.65;;;18.20;64.60;;;;;;5045130;28;20036;-36
2021/01/03 19:34:21;;;;;;;3.95;2.53;;;18.30;64.50;;;;;;5046414;28;20515;-41
2021/01/03 19:36:52;;;;;;;3.27;2.42;;;18.30;64.30;;;;;;4681053;28;10001219;-41
2021/01/03 19:39:21;;;;;;;3.13;2.60;;;18.30;65.20;;;;;;5040442;28;20152;-44
2021/01/03 19:41:47;;;;;;;4.20;2.57;;;18.10;64.30;;;;;;4664948;28;10000035;-41
2021/01/03 19:44:14;;;;;;;5.78;2.90;;;18.10;64.70;;;;;;5031693;28;20412;-39
2021/01/03 19:46:41;;;;;;;2.47;2.25;;;18.10;65.50;;;;;;5023191;28;20052;-43
2021/01/03 19:49:09;;;;;;;3.97;2.50;;;18.10;64.60;;;;;;5019033;28;20025;-45
2021/01/03 19:51:35;;;;;;;8.23;2.10;;;18.10;64.60;;;;;;5031683;28;20052;-45
2021/01/03 19:54:07;;;;;;;2.55;2.35;;;18.30;64.10;;;;;;5028345;28;20121;-40
2021/01/03 19:56:33;;;;;;;8.15;2.33;;;18.20;64.20;;;;;;5043966;28;20029;-45
2021/01/03 19:58:58;;;;;;;3.60;2.00;;;18.10;64.50;;;;;;5045312;28;20033;-39
2021/01/03 20:01:26;;;;;;;2.67;2.47;;;18.10;64.70;;;;;;5045146;28;20112;-41
2021/01/03 20:03:54;;;;;;;4.80;2.53;;;18.10;64.80;;;;;;5043930;28;20650;-40
2021/01/03 20:06:22;;;;;;;3.15;1.95;;;18.20;64.60;;;;;;5045376;28;21474;-38
2021/01/03 20:08:48;;;;;;;5.68;2.10;;;18.20;64.60;;;;;;5045172;28;20043;-40
2021/01/03 20:11:19;;;;;;;4.55;3.25;;;18.10;64.50;;;;;;5045831;28;20567;-41
2021/01/03 20:13:45;;;;;;;6.28;2.03;;;18.00;65.00;;;;;;5043594;28;20032;-39
2021/01/03 20:16:10;;;;;;;3.10;2.05;;;18.10;65.10;;;;;;5044585;28;20033;-40
2021/01/03 20:18:36;;;;;;;3.45;2.35;;;18.00;64.80;;;;;;5044458;28;20086;-46
2021/01/03 20:21:02;;;;;;;4.25;2.22;;;18.20;64.70;;;;;;5045654;28;20075;-41
2021/01/03 20:23:28;;;;;;;2.20;2.10;;;18.30;63.70;;;;;;5045117;28;20460;-39
2021/01/03 20:25:53;;;;;;;6.88;2.70;;;18.20;64.10;;;;;;5044139;28;20071;-40
2021/01/03 20:28:19;;;;;;;3.15;2.85;;;18.10;64.20;;;;;;5038078;28;20037;-45
2021/01/03 20:30:46;;;;;;;2.28;2.17;;;18.10;64.30;;;;;;5032672;28;20032;-42
2021/01/03 20:33:14;;;;;;;2.67;2.17;;;18.20;64.50;;;;;;5022021;28;20029;-40
2021/01/03 20:35:40;;;;;;;2.70;2.20;;;18.20;64.40;;;;;;5043757;28;20377;-39
2021/01/03 20:38:06;;;;;;;3.38;2.20;;;18.40;63.50;;;;;;5043460;28;20037;-39
2021/01/03 20:40:31;;;;;;;3.97;2.30;;;18.30;64.00;;;;;;5042160;28;20025;-39
2021/01/03 20:42:57;;;;;;;3.15;2.20;;;18.30;64.00;;;;;;5045935;28;20056;-43
2021/01/03 20:45:23;;;;;;;6.30;2.30;;;18.20;64.00;;;;;;5046408;28;20053;-42
2021/01/03 20:47:48;;;;;;;2.10;2.00;;;18.20;64.20;;;;;;5044569;28;20511;-39
2021/01/03 20:50:14;;;;;;;2.45;2.25;;;18.20;64.30;;;;;;5042938;28;20028;-42
2021/01/03 20:52:40;;;;;;;4.10;2.55;;;18.30;63.60;;;;;;5042842;28;20408;-56
2021/01/03 20:55:09;;;;;;;2.97;2.00;;;18.30;64.40;;;;;;5043741;28;20091;-44
2021/01/03 20:57:35;;;;;;;2.92;2.20;;;18.30;63.80;;;;;;5045713;28;20118;-52
2021/01/03 21:00:01;;;;;;;4.97;2.17;;;18.40;63.50;;;;;;5045320;28;20025;-51
2021/01/03 21:02:26;;;;;;;3.10;2.10;;;18.70;62.70;;;;;;5043889;28;20147;-38
2021/01/03 21:04:52;;;;;;;2.97;2.05;;;18.70;62.50;;;;;;5043687;28;20045;-44
2021/01/03 21:07:17;;;;;;;2.20;2.10;;;18.40;63.00;;;;;;5043781;28;20038;-38
2021/01/03 21:09:43;;;;;;;2.47;1.88;;;18.30;63.50;;;;;;5043708;28;20055;-39
2021/01/03 21:12:14;;;;;;;3.30;1.98;;;18.40;63.30;;;;;;5049341;28;20029;-52
2021/01/03 21:14:40;;;;;;;2.67;1.92;;;18.60;62.70;;;;;;5065193;28;20025;-44
2021/01/03 21:17:06;;;;;;;1.83;1.73;;;18.60;61.90;;;;;;5044318;28;20545;-58
2021/01/03 21:19:32;;;;;;;3.13;2.00;;;18.90;61.10;;;;;;5045682;28;20033;-52
